Time;durP1;ratioP1;P1;durP2;ratioP2;P2;SDS_P1;SDS_P2;PMS_P1;PMS_P2;Temp;Humidity;BMP_temperature;BMP_pressure;BME280_temperature;BME280_humidity;BME280_pressure;Samples;Min_cycle;Max_cycle;Signal;HPM_P1;HPM_P2
2022/12/25 00:01:43;;;;;;;15.68;4.07;;;;;;;;;;5094281;28;20118;-77
2022/12/25 00:04:08;;;;;;;11.68;4.20;;;;;;;;;;5093719;28;20039;-76
2022/12/25 00:06:34;;;;;;;9.15;3.80;;;;;;;;;;5076879;28;20121;-77
2022/12/25 00:08:59;;;;;;;7.88;3.72;;;;;;;;;;5094495;28;20058;-76
2022/12/25 00:11:24;;;;;;;7.85;4.05;;;;;;;;;;5095195;28;20028;-77
2022/12/25 00:13:50;;;;;;;7.50;3.92;;;;;;;;;;5095205;28;20497;-77
2022/12/25 00:16:21;;;;;;;8.25;3.97;;;;;;;;;;5095216;28;20028;-76
2022/12/25 00:18:47;;;;;;;8.27;3.78;;;;;;;;;;5093637;28;20021;-76
2022/12/25 00:21:13;;;;;;;10.07;3.90;;;;;;;;;;5095043;28;20441;-76
2022/12/25 00:23:39;;;;;;;8.95;3.83;;;;;;;;;;5093772;28;20390;-76
2022/12/25 00:26:06;;;;;;;8.45;3.08;;;;;;;;;;5093468;28;20028;-76
2022/12/25 00:28:32;;;;;;;6.38;3.50;;;;;;;;;;5093494;28;20048;-75
2022/12/25 00:30:57;;;;;;;9.95;3.92;;;;;;;;;;5093533;28;20059;-76
2022/12/25 00:33:23;;;;;;;9.15;3.63;;;;;;;;;;5093832;28;20042;-76
2022/12/25 00:35:57;;;;;;;5.13;3.10;;;;;;;;;;5094602;28;20345;-76
2022/12/25 00:38:22;;;;;;;6.45;3.42;;;;;;;;;;5075430;28;20131;-76
2022/12/25 00:40:48;;;;;;;14.77;3.55;;;;;;;;;;5094663;28;20063;-75
2022/12/25 00:43:13;;;;;;;12.25;3.70;;;;;;;;;;5093312;28;20065;-75
2022/12/25 00:45:38;;;;;;;8.15;3.60;;;;;;;;;;5093584;28;20466;-75
2022/12/25 00:48:04;;;;;;;8.52;3.72;;;;;;;;;;5094184;28;20060;-75
2022/12/25 00:50:30;;;;;;;7.72;3.63;;;;;;;;;;5092994;28;20036;-75
2022/12/25 00:52:55;;;;;;;9.25;3.67;;;;;;;;;;5092983;28;20035;-75
2022/12/25 00:55:20;;;;;;;6.80;3.50;;;;;;;;;;5094082;28;20103;-75
2022/12/25 00:57:46;;;;;;;8.60;3.55;;;;;;;;;;5093987;28;20029;-75
2022/12/25 01:00:11;;;;;;;9.15;3.65;;;;;;;;;;5093281;28;20064;-75
2022/12/25 01:02:37;;;;;;;6.78;3.50;;;;;;;;;;5094113;28;20085;-75
2022/12/25 01:05:03;;;;;;;6.95;3.40;;;;;;;;;;5094107;28;20040;-74
2022/12/25 01:07:29;;;;;;;8.63;3.40;;;;;;;;;;5094050;28;20036;-75
2022/12/25 01:12:40;;;;;;;6.88;3.08;;;;;;;;;;5093997;28;20051;-75
2022/12/25 01:15:07;;;;;;;6.95;3.72;;;;;;;;;;5093923;28;20058;-75
2022/12/25 01:17:33;;;;;;;6.55;3.10;;;;;;;;;;5092345;28;20031;-75
2022/12/25 01:19:58;;;;;;;6.18;3.10;;;;;;;;;;5092283;28;20028;-75
2022/12/25 01:22:24;;;;;;;9.75;3.60;;;;;;;;;;5093851;28;20425;-75
2022/12/25 01:24:49;;;;;;;6.40;3.30;;;;;;;;;;5093538;28;20035;-75
2022/12/25 01:27:15;;;;;;;7.88;3.15;;;;;;;;;;5092204;28;20124;-75
2022/12/25 01:29:40;;;;;;;7.95;3.50;;;;;;;;;;5092043;28;20058;-75
2022/12/25 01:32:06;;;;;;;5.30;2.97;;;;;;;;;;5075500;28;20135;-75
2022/12/25 01:34:31;;;;;;;8.00;3.63;;;;;;;;;;5093312;28;20099;-75
2022/12/25 01:36:57;;;;;;;7.57;3.25;;;;;;;;;;5093500;28;20032;-75
2022/12/25 01:39:22;;;;;;;6.05;3.08;;;;;;;;;;5074994;28;20028;-75
2022/12/25 01:41:48;;;;;;;9.07;3.45;;;;;;;;;;5091962;28;20514;-75
2022/12/25 01:44:13;;;;;;;6.88;3.20;;;;;;;;;;5092341;28;20040;-75
2022/12/25 01:46:39;;;;;;;9.60;3.42;;;;;;;;;;5091655;28;20051;-75
2022/12/25 01:49:16;;;;;;;7.88;3.13;;;;;;;;;;5091970;28;20035;-74
2022/12/25 01:51:55;;;;;;;6.85;3.60;;;;;;;;;;5093080;28;20034;-75
2022/12/25 01:54:25;;;;;;;5.88;3.00;;;;;;;;;;5091963;28;20016;-74
2022/12/25 01:56:52;;;;;;;7.22;3.00;;;;;;;;;;5093272;28;20114;-75
2022/12/25 01:59:21;;;;;;;7.15;3.30;;;;;;;;;;5074795;28;20024;-75
2022/12/25 02:01:46;;;;;;;5.35;2.97;;;;;;;;;;5074939;28;20031;-75
2022/12/25 02:04:44;;;;;;;6.82;3.15;;;;;;;;;;5091605;28;20394;-75
2022/12/25 02:07:21;;;;;;;5.97;3.13;;;;;;;;;;5091873;28;20023;-75
2022/12/25 02:09:47;;;;;;;5.15;2.78;;;;;;;;;;5074787;28;20020;-75
2022/12/25 02:12:17;;;;;;;7.93;3.17;;;;;;;;;;5093234;28;20028;-75
2022/12/25 02:14:43;;;;;;;5.65;2.80;;;;;;;;;;5091597;28;20030;-75
2022/12/25 02:17:27;;;;;;;5.63;2.83;;;;;;;;;;5092984;28;20111;-75
2022/12/25 02:20:08;;;;;;;8.23;3.03;;;;;;;;;;5092912;28;20473;-75
2022/12/25 02:23:00;;;;;;;5.63;2.80;;;;;;;;;;5092901;28;20028;-75
2022/12/25 02:25:44;;;;;;;7.40;3.08;;;;;;;;;;5092012;28;20020;-75
2022/12/25 02:28:29;;;;;;;7.78;3.10;;;;;;;;;;5092765;28;20097;-74
2022/12/25 02:31:09;;;;;;;5.80;2.80;;;;;;;;;;5091613;28;20032;-76
2022/12/25 02:36:32;;;;;;;5.47;2.63;;;;;;;;;;5092918;28;20039;-75
2022/12/25 02:41:44;;;;;;;6.10;2.70;;;;;;;;;;5091556;28;20036;-75
2022/12/25 03:06:42;;;;;;;5.97;2.83;;;;;;;;;;5095441;28;20112;-75
2022/12/25 03:12:00;;;;;;;10.20;2.95;;;;;;;;;;5095077;28;20532;-75
2022/12/25 03:17:10;;;;;;;7.72;2.65;;;;;;;;;;5096111;28;20448;-75
2022/12/25 03:27:57;;;;;;;5.20;2.65;;;;;;;;;;5095036;28;20035;-75
2022/12/25 03:33:28;;;;;;;5.45;2.72;;;;;;;;;;5095597;28;20043;-75
2022/12/25 03:36:13;;;;;;;5.15;2.60;;;;;;;;;;5094494;28;20093;-75
2022/12/25 04:36:47;;;;;;;7.30;2.10;;;;;;;;;;5093673;28;20109;-75
2022/12/25 04:39:13;;;;;;;12.35;2.30;;;;;;;;;;5092995;28;20036;-74
2022/12/25 04:41:38;;;;;;;5.53;2.53;;;;;;;;;;5093130;28;20467;-75
2022/12/25 04:44:03;;;;;;;4.93;2.13;;;;;;;;;;5093004;28;20123;-75
2022/12/25 04:46:29;;;;;;;8.32;2.75;;;;;;;;;;5092906;28;20063;-75
2022/12/25 04:48:54;;;;;;;4.60;2.10;;;;;;;;;;5094323;28;20024;-75
2022/12/25 04:51:22;;;;;;;6.03;2.20;;;;;;;;;;5093042;28;20098;-75
2022/12/25 04:53:49;;;;;;;5.47;2.47;;;;;;;;;;5092917;28;20088;-75
2022/12/25 04:56:15;;;;;;;4.65;2.00;;;;;;;;;;5075896;28;20149;-75
2022/12/25 04:58:42;;;;;;;4.43;2.42;;;;;;;;;;5093221;28;20024;-75
2022/12/25 05:01:08;;;;;;;3.83;2.08;;;;;;;;;;5092905;28;20455;-75
2022/12/25 05:03:33;;;;;;;6.18;2.33;;;;;;;;;;5094033;28;20038;-75
2022/12/25 05:05:59;;;;;;;5.22;2.30;;;;;;;;;;5094937;28;20528;-74
2022/12/25 05:08:27;;;;;;;4.53;2.20;;;;;;;;;;5094008;28;20047;-75
2022/12/25 05:10:52;;;;;;;3.97;1.90;;;;;;;;;;5094846;28;20024;-75
2022/12/25 05:13:17;;;;;;;6.88;2.22;;;;;;;;;;5093372;28;20034;-75
2022/12/25 05:15:43;;;;;;;3.78;2.10;;;;;;;;;;5093247;28;20470;-75
2022/12/25 05:18:08;;;;;;;4.13;1.90;;;;;;;;;;5093397;28;20462;-75
2022/12/25 05:20:34;;;;;;;3.25;1.90;;;;;;;;;;5093459;28;20028;-76
2022/12/25 05:22:59;;;;;;;4.00;1.90;;;;;;;;;;5076170;28;20390;-75
2022/12/25 05:25:25;;;;;;;4.20;2.15;;;;;;;;;;5093220;28;20031;-75
2022/12/25 05:27:50;;;;;;;5.25;2.17;;;;;;;;;;5094430;28;20024;-75
2022/12/25 05:30:16;;;;;;;4.45;1.98;;;;;;;;;;5094208;28;20039;-75
2022/12/25 05:32:41;;;;;;;4.25;2.00;;;;;;;;;;5094445;28;20044;-76
2022/12/25 05:35:07;;;;;;;4.35;2.58;;;;;;;;;;5075940;28;20043;-75
2022/12/25 05:37:34;;;;;;;3.92;2.20;;;;;;;;;;5094348;28;20103;-75
2022/12/25 05:39:59;;;;;;;4.15;1.98;;;;;;;;;;5094398;28;20028;-75
2022/12/25 05:42:25;;;;;;;4.18;2.10;;;;;;;;;;5092740;28;20115;-75
2022/12/25 05:44:50;;;;;;;4.18;2.00;;;;;;;;;;5094293;28;20055;-76
2022/12/25 05:47:15;;;;;;;5.30;1.80;;;;;;;;;;5092436;28;20053;-75
2022/12/25 05:49:41;;;;;;;3.22;1.80;;;;;;;;;;5094090;28;20024;-75
2022/12/25 05:52:07;;;;;;;4.18;1.85;;;;;;;;;;5093954;28;20032;-75
2022/12/25 05:54:33;;;;;;;7.97;2.17;;;;;;;;;;5092528;28;20035;-75
2022/12/25 05:56:58;;;;;;;3.83;1.70;;;;;;;;;;5092976;28;20063;-75
2022/12/25 05:59:24;;;;;;;2.90;1.90;;;;;;;;;;5092390;28;20071;-75
2022/12/25 06:01:49;;;;;;;4.90;1.75;;;;;;;;;;5093989;28;20092;-74
2022/12/25 06:04:14;;;;;;;4.30;1.63;;;;;;;;;;5093871;28;20031;-75
2022/12/25 06:06:40;;;;;;;9.45;1.60;;;;;;;;;;5093698;28;20028;-75
2022/12/25 06:09:05;;;;;;;2.85;1.60;;;;;;;;;;5075423;28;20031;-75
2022/12/25 06:11:31;;;;;;;4.25;1.67;;;;;;;;;;5093807;28;20386;-75
2022/12/25 06:13:56;;;;;;;1.85;1.50;;;;;;;;;;5075647;28;20035;-75
2022/12/25 06:16:21;;;;;;;4.80;1.60;;;;;;;;;;5093478;28;20035;-75
2022/12/25 06:18:48;;;;;;;3.95;1.90;;;;;;;;;;5092520;28;20473;-75
2022/12/25 06:21:14;;;;;;;2.90;1.60;;;;;;;;;;5075265;28;20394;-75
2022/12/25 06:23:40;;;;;;;5.07;1.63;;;;;;;;;;5093691;28;20532;-75
2022/12/25 06:26:08;;;;;;;3.05;1.70;;;;;;;;;;5092499;28;20032;-75
2022/12/25 06:28:34;;;;;;;4.38;1.90;;;;;;;;;;5093395;28;20541;-75
2022/12/25 06:31:12;;;;;;;4.28;1.63;;;;;;;;;;5092130;28;20024;-75
2022/12/25 06:33:38;;;;;;;3.30;1.88;;;;;;;;;;5091992;28;20081;-75
2022/12/25 06:36:05;;;;;;;2.65;1.40;;;;;;;;;;5092417;28;20032;-75
2022/12/25 06:38:31;;;;;;;2.58;1.38;;;;;;;;;;5096545;28;20031;-75
2022/12/25 06:41:09;;;;;;;7.28;1.55;;;;;;;;;;5097563;28;20024;-75
2022/12/25 06:43:35;;;;;;;3.28;1.30;;;;;;;;;;5097579;28;20049;-75
2022/12/25 06:46:05;;;;;;;3.28;1.58;;;;;;;;;;5096653;28;20082;-75
2022/12/25 06:48:32;;;;;;;1.95;1.40;;;;;;;;;;5097138;28;20070;-76
2022/12/25 06:50:57;;;;;;;4.63;1.70;;;;;;;;;;5095972;28;20535;-75
2022/12/25 06:53:22;;;;;;;2.60;1.55;;;;;;;;;;5097307;28;20144;-75
2022/12/25 06:55:48;;;;;;;2.25;1.60;;;;;;;;;;5097245;28;20517;-75
2022/12/25 06:58:13;;;;;;;2.13;1.20;;;;;;;;;;5097638;28;20070;-75
2022/12/25 07:00:38;;;;;;;2.58;1.25;;;;;;;;;;5097343;28;20475;-75
2022/12/25 07:03:04;;;;;;;4.03;1.40;;;;;;;;;;5079498;28;20072;-75
2022/12/25 07:05:29;;;;;;;2.78;1.40;;;;;;;;;;5096947;28;20036;-75
2022/12/25 07:07:54;;;;;;;1.75;1.30;;;;;;;;;;5097279;28;20034;-75
2022/12/25 07:10:20;;;;;;;2.67;1.38;;;;;;;;;;5095699;28;20432;-75
2022/12/25 07:12:45;;;;;;;2.60;1.70;;;;;;;;;;5095678;28;20063;-75
2022/12/25 07:15:10;;;;;;;2.20;1.35;;;;;;;;;;5097348;28;20043;-75
2022/12/25 07:17:36;;;;;;;2.67;1.40;;;;;;;;;;5095634;28;20083;-75
2022/12/25 07:20:01;;;;;;;4.40;1.30;;;;;;;;;;5078536;28;20084;-75
2022/12/25 07:22:28;;;;;;;2.08;1.27;;;;;;;;;;5078554;28;20497;-75
2022/12/25 07:24:53;;;;;;;3.47;1.30;;;;;;;;;;5095758;28;20024;-75
2022/12/25 07:27:18;;;;;;;5.75;1.45;;;;;;;;;;5096900;28;20090;-75
2022/12/25 07:29:44;;;;;;;1.92;1.20;;;;;;;;;;5096775;28;20024;-75
2022/12/25 07:32:09;;;;;;;1.50;1.23;;;;;;;;;;5095767;28;20413;-75
2022/12/25 07:34:34;;;;;;;3.13;1.48;;;;;;;;;;5096708;28;20039;-75
2022/12/25 07:37:00;;;;;;;2.35;1.42;;;;;;;;;;5095750;28;20039;-75
2022/12/25 07:39:25;;;;;;;2.70;1.27;;;;;;;;;;5095348;28;20035;-75
2022/12/25 07:41:50;;;;;;;2.72;1.15;;;;;;;;;;5095083;28;20378;-75
2022/12/25 07:44:16;;;;;;;2.13;1.17;;;;;;;;;;5094951;28;20115;-75
2022/12/25 07:46:42;;;;;;;2.90;1.25;;;;;;;;;;5095956;28;20101;-75
2022/12/25 07:49:07;;;;;;;3.95;1.30;;;;;;;;;;5093850;28;20469;-75
2022/12/25 07:51:33;;;;;;;1.80;1.20;;;;;;;;;;5093655;28;20103;-75
2022/12/25 07:53:58;;;;;;;1.70;1.15;;;;;;;;;;5095407;28;20084;-75
2022/12/25 07:56:23;;;;;;;2.13;1.20;;;;;;;;;;5093611;28;20028;-75
2022/12/25 07:58:49;;;;;;;2.00;1.10;;;;;;;;;;5095300;28;20053;-75
2022/12/25 08:01:20;;;;;;;2.45;1.60;;;;;;;;;;5076673;28;20107;-75
2022/12/25 08:03:53;;;;;;;6.25;1.55;;;;;;;;;;5076538;28;20455;-75
2022/12/25 08:06:20;;;;;;;4.05;1.60;;;;;;;;;;5093817;28;20028;-77
2022/12/25 08:08:46;;;;;;;7.53;1.60;;;;;;;;;;5093677;28;20051;-76
2022/12/25 08:11:12;;;;;;;3.20;1.83;;;;;;;;;;5093269;28;20063;-76
2022/12/25 08:13:37;;;;;;;6.90;1.77;;;;;;;;;;5104971;28;20027;-74
2022/12/25 08:16:06;;;;;;;6.97;2.50;;;;;;;;;;5103147;28;20111;-75
2022/12/25 08:18:32;;;;;;;4.65;1.77;;;;;;;;;;5103477;28;20028;-75
2022/12/25 08:21:02;;;;;;;2.67;1.40;;;;;;;;;;5103444;28;20364;-76
2022/12/25 08:23:28;;;;;;;6.38;1.80;;;;;;;;;;5103324;28;20028;-76
2022/12/25 08:25:58;;;;;;;5.07;1.95;;;;;;;;;;5103185;28;20024;-76
2022/12/25 08:28:23;;;;;;;12.60;1.95;;;;;;;;;;5103844;28;20526;-77
2022/12/25 08:30:48;;;;;;;4.07;1.50;;;;;;;;;;5103291;28;20115;-77
2022/12/25 08:33:14;;;;;;;4.40;1.83;;;;;;;;;;5104710;28;20030;-76
2022/12/25 08:35:39;;;;;;;3.92;2.05;;;;;;;;;;5104768;28;20103;-76
2022/12/25 08:38:05;;;;;;;6.78;1.77;;;;;;;;;;5102824;28;20020;-77
2022/12/25 08:40:31;;;;;;;5.07;1.60;;;;;;;;;;5104560;28;20069;-77
2022/12/25 08:42:56;;;;;;;2.97;1.58;;;;;;;;;;5109778;28;20367;-77
2022/12/25 08:45:22;;;;;;;1.85;1.33;;;;;;;;;;5114712;28;20065;-77
2022/12/25 08:47:53;;;;;;;2.87;1.67;;;;;;;;;;5069700;28;1251817;-78
2022/12/25 08:50:18;;;;;;;4.82;1.45;;;;;;;;;;5114311;28;20321;-77
2022/12/25 08:52:43;;;;;;;3.15;2.00;;;;;;;;;;5115314;28;20035;-77
2022/12/25 08:55:09;;;;;;;6.18;1.67;;;;;;;;;;5115655;28;20047;-78
2022/12/25 08:57:34;;;;;;;5.57;2.30;;;;;;;;;;5115311;28;20028;-77
2022/12/25 09:00:00;;;;;;;6.55;1.60;;;;;;;;;;5113042;28;20482;-77
2022/12/25 09:02:25;;;;;;;1.42;1.33;;;;;;;;;;5114187;28;20110;-77
2022/12/25 09:04:50;;;;;;;2.13;1.40;;;;;;;;;;5115049;28;20473;-76
2022/12/25 09:07:16;;;;;;;5.65;1.63;;;;;;;;;;5115103;28;20035;-76
2022/12/25 09:09:42;;;;;;;2.55;1.50;;;;;;;;;;5115280;28;20026;-76
2022/12/25 09:12:07;;;;;;;3.75;1.40;;;;;;;;;;5113695;28;20119;-76
2022/12/25 09:14:33;;;;;;;10.98;2.10;;;;;;;;;;5113977;28;20099;-77
2022/12/25 09:16:58;;;;;;;22.38;2.40;;;;;;;;;;5115134;28;20031;-77
2022/12/25 09:19:24;;;;;;;3.22;1.75;;;;;;;;;;5096540;28;20484;-76
2022/12/25 09:21:49;;;;;;;5.97;1.50;;;;;;;;;;5113908;28;20023;-77
2022/12/25 09:24:14;;;;;;;2.60;1.40;;;;;;;;;;5115034;28;20436;-77
2022/12/25 09:26:40;;;;;;;2.80;1.40;;;;;;;;;;5114670;28;20092;-78
2022/12/25 09:29:05;;;;;;;4.10;1.90;;;;;;;;;;5114732;28;20031;-77
2022/12/25 09:31:30;;;;;;;4.88;1.75;;;;;;;;;;5114634;28;20043;-77
2022/12/25 09:33:57;;;;;;;3.03;1.52;;;;;;;;;;5113350;28;20494;-77
2022/12/25 09:36:22;;;;;;;2.67;1.50;;;;;;;;;;5113292;28;20027;-77
2022/12/25 09:38:48;;;;;;;4.38;1.90;;;;;;;;;;5096120;28;20031;-77
2022/12/25 09:41:30;;;;;;;2.55;1.55;;;;;;;;;;5114412;28;20060;-79
2022/12/25 09:44:03;;;;;;;3.22;1.50;;;;;;;;;;5113239;28;20031;-79
2022/12/25 09:46:39;;;;;;;2.88;1.70;;;;;;;;;;5114235;28;20024;-80
2022/12/25 09:49:17;;;;;;;2.65;1.70;;;;;;;;;;5113424;28;20030;-79
2022/12/25 09:51:44;;;;;;;3.50;1.60;;;;;;;;;;5114088;28;20043;-79
2022/12/25 09:54:15;;;;;;;3.75;1.58;;;;;;;;;;5113584;28;20027;-79
2022/12/25 09:56:41;;;;;;;2.63;1.75;;;;;;;;;;5114448;28;20020;-79
2022/12/25 09:59:17;;;;;;;2.10;1.58;;;;;;;;;;5114143;28;20035;-78
2022/12/25 10:02:19;;;;;;;1.80;1.55;;;;;;;;;;5113149;28;20028;-78
2022/12/25 10:04:51;;;;;;;3.88;1.60;;;;;;;;;;5102698;28;20056;-78
2022/12/25 10:07:26;;;;;;;2.13;1.67;;;;;;;;;;5114025;28;20023;-77
2022/12/25 10:10:11;;;;;;;2.88;1.80;;;;;;;;;;5113205;28;20351;-78
2022/12/25 10:12:51;;;;;;;1.80;1.50;;;;;;;;;;5113845;28;20023;-77
2022/12/25 10:15:50;;;;;;;4.50;1.67;;;;;;;;;;5113920;28;20040;-77
2022/12/25 10:18:28;;;;;;;3.03;1.60;;;;;;;;;;5112585;28;20028;-77
2022/12/25 10:20:55;;;;;;;4.03;2.10;;;;;;;;;;5114090;28;20028;-76
2022/12/25 10:23:31;;;;;;;2.97;1.83;;;;;;;;;;5112573;28;20489;-77
2022/12/25 10:25:57;;;;;;;2.45;1.48;;;;;;;;;;5095568;28;20053;-76
2022/12/25 10:28:27;;;;;;;2.47;1.80;;;;;;;;;;5095795;28;20470;-76
2022/12/25 10:30:54;;;;;;;1.92;1.38;;;;;;;;;;5114034;28;20031;-76
2022/12/25 10:33:20;;;;;;;5.55;1.88;;;;;;;;;;5113969;28;20089;-78
2022/12/25 10:35:46;;;;;;;3.67;1.73;;;;;;;;;;5112790;28;20469;-78
2022/12/25 10:38:17;;;;;;;2.40;1.60;;;;;;;;;;5112391;28;20076;-76
2022/12/25 10:41:04;;;;;;;4.50;2.03;;;;;;;;;;5113770;28;20070;-80
2022/12/25 10:43:41;;;;;;;2.63;1.60;;;;;;;;;;5113595;28;20080;-79
2022/12/25 10:46:10;;;;;;;7.60;2.97;;;;;;;;;;5112366;28;20023;-81
2022/12/25 10:48:47;;;;;;;11.15;2.78;;;;;;;;;;5112238;28;20044;-79
2022/12/25 10:51:13;;;;;;;7.30;2.95;;;;;;;;;;5112337;28;20028;-78
2022/12/25 10:53:41;;;;;;;8.60;3.00;;;;;;;;;;5112402;28;20106;-78
2022/12/25 10:56:12;;;;;;;7.50;3.25;;;;;;;;;;5095285;28;20026;-80
2022/12/25 10:58:38;;;;;;;8.85;2.72;;;;;;;;;;5095362;28;20023;-80
2022/12/25 11:01:05;;;;;;;10.98;2.95;;;;;;;;;;5112413;28;20046;-80
2022/12/25 11:03:32;;;;;;;10.25;3.30;;;;;;;;;;5113492;28;20416;-79
2022/12/25 11:05:58;;;;;;;10.77;2.88;;;;;;;;;;5095253;28;20074;-79
2022/12/25 11:08:26;;;;;;;13.52;3.00;;;;;;;;;;5112264;28;20055;-80
2022/12/25 11:11:04;;;;;;;6.25;2.58;;;;;;;;;;5112102;28;20103;-79
2022/12/25 11:13:32;;;;;;;6.72;3.15;;;;;;;;;;5113563;28;20111;-80
2022/12/25 11:16:24;;;;;;;8.60;3.05;;;;;;;;;;5113150;28;20525;-79
2022/12/25 11:18:51;;;;;;;6.20;2.70;;;;;;;;;;5113432;28;20031;-79
2022/12/25 11:21:18;;;;;;;6.30;2.88;;;;;;;;;;5112393;28;20458;-79
2022/12/25 11:23:49;;;;;;;5.63;2.80;;;;;;;;;;5114896;28;20026;-80
2022/12/25 11:26:16;;;;;;;5.45;2.60;;;;;;;;;;5115806;28;20023;-80
2022/12/25 11:28:43;;;;;;;5.38;2.60;;;;;;;;;;5115950;28;20045;-80
2022/12/25 11:31:13;;;;;;;5.15;3.10;;;;;;;;;;5115652;28;20054;-80
2022/12/25 11:34:04;;;;;;;4.53;2.67;;;;;;;;;;5117386;28;20080;-79
2022/12/25 11:36:41;;;;;;;7.32;2.85;;;;;;;;;;5115043;28;20045;-80
2022/12/25 11:39:36;;;;;;;7.72;4.18;;;;;;;;;;5116988;28;20031;-78
2022/12/25 11:42:34;;;;;;;9.48;4.70;;;;;;;;;;5108622;28;20042;-80
2022/12/25 11:45:11;;;;;;;8.10;4.30;;;;;;;;;;5098236;28;20080;-79
2022/12/25 11:47:55;;;;;;;12.27;4.93;;;;;;;;;;5098136;28;20043;-79
2022/12/25 11:50:27;;;;;;;;;;;;;;;;;;5115954;28;20011;-79
2022/12/25 11:52:54;;;;;;;15.60;6.20;;;;;;;;;;5098714;28;20289;-80
2022/12/25 11:55:38;;;;;;;23.17;6.57;;;;;;;;;;5115252;28;20084;-78
2022/12/25 11:58:05;;;;;;;;;;;;;;;;;;5115528;28;20024;-78
2022/12/25 12:00:32;;;;;;;17.35;6.72;;;;;;;;;;5115344;28;19949;-81
2022/12/25 12:03:10;;;;;;;16.98;6.28;;;;;;;;;;5115744;28;20040;-78
2022/12/25 12:05:44;;;;;;;16.80;6.00;;;;;;;;;;5116567;28;20031;-78
2022/12/25 12:08:10;;;;;;;21.38;6.05;;;;;;;;;;5115288;28;20551;-78
2022/12/25 12:10:44;;;;;;;14.18;5.32;;;;;;;;;;5097862;28;20059;-78
2022/12/25 12:13:29;;;;;;;13.63;5.50;;;;;;;;;;5116316;28;20466;-78
2022/12/25 12:15:54;;;;;;;;;;;;;;;;;;5115536;28;20118;-78
2022/12/25 12:18:28;;;;;;;10.75;4.90;;;;;;;;;;5114663;28;19996;-79
2022/12/25 12:21:10;;;;;;;8.65;4.35;;;;;;;;;;5116255;28;20110;-79
2022/12/25 12:23:53;;;;;;;8.40;4.38;;;;;;;;;;5114961;28;20031;-78
2022/12/25 12:26:24;;;;;;;9.88;4.13;;;;;;;;;;5114937;28;20063;-78
2022/12/25 12:28:51;;;;;;;11.07;4.95;;;;;;;;;;5114634;28;20032;-78
2022/12/25 12:31:16;;;;;;;8.65;3.97;;;;;;;;;;5114380;28;20043;-78
2022/12/25 12:33:49;;;;;;;8.55;3.67;;;;;;;;;;5114084;28;20381;-77
2022/12/25 12:36:15;;;;;;;11.38;3.97;;;;;;;;;;5114685;28;20374;-78
2022/12/25 12:38:42;;;;;;;10.32;3.80;;;;;;;;;;5114626;28;20024;-78
2022/12/25 12:41:09;;;;;;;8.27;3.70;;;;;;;;;;5097225;28;20027;-78
2022/12/25 12:43:38;;;;;;;13.15;3.45;;;;;;;;;;5114852;28;20034;-79
2022/12/25 12:46:15;;;;;;;7.53;3.58;;;;;;;;;;5114252;28;20027;-78
2022/12/25 12:48:44;;;;;;;7.63;3.58;;;;;;;;;;5115192;28;20067;-79
2022/12/25 12:51:12;;;;;;;7.57;4.15;;;;;;;;;;5097016;28;20037;-79
2022/12/25 12:53:41;;;;;;;9.77;3.60;;;;;;;;;;5114037;28;20023;-77
2022/12/25 12:56:15;;;;;;;7.28;3.80;;;;;;;;;;5114372;28;20024;-79
2022/12/25 12:58:47;;;;;;;5.35;3.50;;;;;;;;;;5115217;28;20024;-79
2022/12/25 13:01:26;;;;;;;4.97;3.40;;;;;;;;;;5113907;28;20469;-78
2022/12/25 13:04:13;;;;;;;6.88;3.38;;;;;;;;;;5115292;28;20038;-79
2022/12/25 13:07:01;;;;;;;6.32;3.35;;;;;;;;;;5115568;28;20026;-79
2022/12/25 13:09:51;;;;;;;5.55;3.08;;;;;;;;;;5115121;28;20095;-79
2022/12/25 13:12:17;;;;;;;27.58;6.90;;;;;;;;;;5115235;28;20047;-78
2022/12/25 13:14:46;;;;;;;11.27;4.10;;;;;;;;;;5114871;28;20037;-78
2022/12/25 13:17:16;;;;;;;10.50;4.22;;;;;;;;;;5113715;28;20028;-78
2022/12/25 13:19:42;;;;;;;13.80;4.35;;;;;;;;;;5113534;28;20077;-78
2022/12/25 13:22:23;;;;;;;7.25;3.90;;;;;;;;;;5113546;28;20482;-77
2022/12/25 13:24:55;;;;;;;33.45;4.30;;;;;;;;;;5114107;28;20034;-76
2022/12/25 13:27:26;;;;;;;8.93;4.20;;;;;;;;;;5115151;28;20024;-77
2022/12/25 13:29:51;;;;;;;10.65;4.53;;;;;;;;;;5113355;28;20027;-77
2022/12/25 13:32:26;;;;;;;14.38;4.45;;;;;;;;;;5114616;28;20036;-78
2022/12/25 13:34:52;;;;;;;11.32;4.25;;;;;;;;;;5113779;28;20428;-79
2022/12/25 13:37:21;;;;;;;8.90;3.95;;;;;;;;;;5113133;28;20027;-78
2022/12/25 13:39:50;;;;;;;11.93;4.80;;;;;;;;;;5113140;28;20027;-78
2022/12/25 13:42:25;;;;;;;7.35;4.05;;;;;;;;;;5114354;27;20054;-78
2022/12/25 13:44:54;;;;;;;11.05;3.97;;;;;;;;;;5112744;28;20023;-78
2022/12/25 13:47:29;;;;;;;7.63;3.88;;;;;;;;;;5108863;28;20047;-78
2022/12/25 13:49:56;;;;;;;10.80;4.40;;;;;;;;;;5103502;28;20026;-76
2022/12/25 13:52:36;;;;;;;9.15;3.97;;;;;;;;;;5106048;27;20072;-76
2022/12/25 13:55:08;;;;;;;6.57;3.80;;;;;;;;;;5102344;28;20134;-77
2022/12/25 13:57:36;;;;;;;6.45;3.67;;;;;;;;;;5102588;28;20443;-77
2022/12/25 14:00:04;;;;;;;6.68;3.67;;;;;;;;;;5100266;28;20020;-80
2022/12/25 14:02:33;;;;;;;7.63;4.05;;;;;;;;;;5102730;28;20035;-79
2022/12/25 14:04:59;;;;;;;10.85;4.50;;;;;;;;;;5097003;28;20036;-80
2022/12/25 14:07:24;;;;;;;5.97;3.95;;;;;;;;;;5079941;28;20393;-79
2022/12/25 14:09:55;;;;;;;9.15;3.88;;;;;;;;;;5097750;28;20024;-77
2022/12/25 14:12:21;;;;;;;6.55;3.72;;;;;;;;;;5112644;28;20019;-78
2022/12/25 14:14:48;;;;;;;5.65;3.72;;;;;;;;;;5112739;28;20363;-77
2022/12/25 14:17:14;;;;;;;7.70;4.13;;;;;;;;;;5095842;28;20034;-78
2022/12/25 14:19:39;;;;;;;6.68;4.28;;;;;;;;;;5095536;28;20031;-78
2022/12/25 14:22:17;;;;;;;8.07;3.85;;;;;;;;;;5113849;28;20032;-78
2022/12/25 14:24:43;;;;;;;7.30;4.40;;;;;;;;;;5112539;28;20028;-78
2022/12/25 14:27:20;;;;;;;8.68;3.90;;;;;;;;;;5113783;28;20049;-79
2022/12/25 14:29:47;;;;;;;6.88;3.67;;;;;;;;;;5113673;28;20462;-78
2022/12/25 14:32:15;;;;;;;6.60;4.03;;;;;;;;;;5112407;28;20032;-78
2022/12/25 14:34:44;;;;;;;5.85;3.97;;;;;;;;;;5114239;28;20039;-78
2022/12/25 14:37:18;;;;;;;10.35;4.35;;;;;;;;;;5112730;28;20027;-78
2022/12/25 14:39:46;;;;;;;7.57;4.00;;;;;;;;;;5112615;28;20028;-78
2022/12/25 14:42:21;;;;;;;6.50;3.83;;;;;;;;;;5095712;28;20088;-78
2022/12/25 14:45:06;;;;;;;5.60;4.10;;;;;;;;;;5112670;28;20023;-79
2022/12/25 14:47:48;;;;;;;9.68;4.25;;;;;;;;;;5112130;28;20066;-78
2022/12/25 14:50:37;;;;;;;6.47;3.72;;;;;;;;;;5112625;28;20061;-78
2022/12/25 14:53:03;;;;;;;6.95;4.07;;;;;;;;;;5112343;28;20115;-78
2022/12/25 14:55:29;;;;;;;7.95;3.72;;;;;;;;;;5112301;28;20099;-78
2022/12/25 14:57:57;;;;;;;5.38;3.50;;;;;;;;;;5115475;28;20032;-78
2022/12/25 15:00:34;;;;;;;6.45;3.78;;;;;;;;;;5116541;28;20054;-78
2022/12/25 15:03:00;;;;;;;7.07;4.00;;;;;;;;;;5116396;28;20122;-79
2022/12/25 15:05:37;;;;;;;6.38;4.28;;;;;;;;;;5116252;28;20027;-78
2022/12/25 15:08:09;;;;;;;4.78;3.65;;;;;;;;;;5099368;28;20026;-78
2022/12/25 15:10:36;;;;;;;6.22;3.67;;;;;;;;;;5117611;28;20020;-78
2022/12/25 15:13:01;;;;;;;6.57;4.03;;;;;;;;;;5115941;28;20047;-78
2022/12/25 15:15:27;;;;;;;6.70;3.83;;;;;;;;;;5117115;28;20398;-78
2022/12/25 15:17:53;;;;;;;5.68;3.90;;;;;;;;;;5115909;28;20054;-78
2022/12/25 15:20:21;;;;;;;6.60;4.13;;;;;;;;;;5116135;28;20024;-78
2022/12/25 15:22:46;;;;;;;4.70;3.92;;;;;;;;;;5116108;28;20451;-78
2022/12/25 15:25:13;;;;;;;5.05;3.70;;;;;;;;;;5115793;28;20023;-78
2022/12/25 15:27:40;;;;;;;6.97;3.90;;;;;;;;;;5116001;28;20621;-78
2022/12/25 15:30:07;;;;;;;4.22;3.47;;;;;;;;;;5115803;28;20122;-78
2022/12/25 15:32:32;;;;;;;6.90;4.32;;;;;;;;;;5117054;28;20036;-78
2022/12/25 15:34:57;;;;;;;4.72;3.97;;;;;;;;;;5115943;28;20042;-78
2022/12/25 15:37:23;;;;;;;6.78;4.00;;;;;;;;;;5116833;28;20061;-78
2022/12/25 15:39:48;;;;;;;5.93;3.78;;;;;;;;;;5116816;28;20375;-78
2022/12/25 15:42:16;;;;;;;5.82;3.85;;;;;;;;;;5117258;28;20039;-78
2022/12/25 15:44:42;;;;;;;3.50;3.20;;;;;;;;;;5115834;28;20496;-77
2022/12/25 15:47:12;;;;;;;6.95;3.47;;;;;;;;;;5115475;28;20051;-77
2022/12/25 15:49:37;;;;;;;3.67;3.13;;;;;;;;;;5115404;28;20043;-78
2022/12/25 15:52:08;;;;;;;3.80;3.00;;;;;;;;;;5098212;28;20089;-78
2022/12/25 15:54:34;;;;;;;4.78;3.55;;;;;;;;;;5115265;28;20432;-78
2022/12/25 15:57:01;;;;;;;4.30;3.30;;;;;;;;;;5115794;28;20032;-78
2022/12/25 15:59:27;;;;;;;13.60;3.70;;;;;;;;;;5115697;28;20110;-76
2022/12/25 16:01:54;;;;;;;3.65;3.28;;;;;;;;;;5116992;28;20063;-76
2022/12/25 16:04:21;;;;;;;3.72;3.25;;;;;;;;;;5114987;28;20027;-76
2022/12/25 16:06:47;;;;;;;7.80;3.28;;;;;;;;;;5115060;28;20074;-78
2022/12/25 16:09:13;;;;;;;3.47;2.95;;;;;;;;;;5114769;28;20032;-78
2022/12/25 16:11:39;;;;;;;5.70;3.80;;;;;;;;;;5116420;28;20038;-78
2022/12/25 16:14:05;;;;;;;7.20;3.47;;;;;;;;;;5116114;28;20036;-77
2022/12/25 16:16:30;;;;;;;4.68;3.25;;;;;;;;;;5115029;28;20031;-77
2022/12/25 16:18:56;;;;;;;4.53;3.50;;;;;;;;;;5115036;28;20381;-77
2022/12/25 16:21:22;;;;;;;5.38;3.20;;;;;;;;;;5116269;28;20024;-77
2022/12/25 16:23:47;;;;;;;4.05;3.30;;;;;;;;;;5114767;28;20443;-79
2022/12/25 16:26:13;;;;;;;3.60;3.08;;;;;;;;;;5116153;28;20031;-77
2022/12/25 16:28:38;;;;;;;5.07;3.22;;;;;;;;;;5114717;28;20085;-78
2022/12/25 16:31:03;;;;;;;4.93;3.53;;;;;;;;;;5115988;27;20069;-77
2022/12/25 16:33:29;;;;;;;3.70;3.20;;;;;;;;;;5114606;28;20476;-78
2022/12/25 16:35:54;;;;;;;4.18;3.28;;;;;;;;;;5114536;28;20088;-77
2022/12/25 16:38:20;;;;;;;3.50;3.20;;;;;;;;;;5115930;28;20043;-77
2022/12/25 16:40:57;;;;;;;3.95;3.40;;;;;;;;;;5114567;28;20038;-78